Time;durP1;ratioP1;P1;durP2;ratioP2;P2;SDS_P1;SDS_P2;PMS_P1;PMS_P2;Temp;Humidity;BMP_temperature;BMP_pressure;BME280_temperature;BME280_humidity;BME280_pressure;Samples;Min_cycle;Max_cycle;Signal;HPM_P1;HPM_P2
2024/03/05 00:02:12;;;;;;;66.28;28.48;;;;;;;;;;5028376;28;20030;-58
2024/03/05 00:04:38;;;;;;;65.20;27.37;;;;;;;;;;5025273;28;20038;-59
2024/03/05 00:07:03;;;;;;;69.35;28.58;;;;;;;;;;5023915;28;20030;-59
2024/03/05 00:09:30;;;;;;;65.47;27.80;;;;;;;;;;5026099;28;20021;-58
2024/03/05 00:11:55;;;;;;;62.40;27.25;;;;;;;;;;5025793;28;20114;-57
2024/03/05 00:14:20;;;;;;;66.50;26.38;;;;;;;;;;5010455;28;20054;-58
2024/03/05 00:16:47;;;;;;;65.37;28.10;;;;;;;;;;5011783;28;20026;-58
2024/03/05 00:19:12;;;;;;;57.75;25.23;;;;;;;;;;5011852;28;20429;-57
2024/03/05 00:21:37;;;;;;;62.37;27.37;;;;;;;;;;5011388;28;20121;-58
2024/03/05 00:24:02;;;;;;;65.93;26.92;;;;;;;;;;5010629;28;20030;-58
2024/03/05 00:26:27;;;;;;;63.33;28.07;;;;;;;;;;5011421;28;20021;-58
2024/03/05 00:28:55;;;;;;;68.40;28.53;;;;;;;;;;5010327;28;20436;-58
2024/03/05 00:31:21;;;;;;;64.03;27.92;;;;;;;;;;5010492;28;20018;-58
2024/03/05 00:33:46;;;;;;;62.55;25.67;;;;;;;;;;5010421;28;20385;-59
2024/03/05 00:36:11;;;;;;;66.03;28.17;;;;;;;;;;5013751;28;20056;-59
2024/03/05 00:38:37;;;;;;;61.35;26.45;;;;;;;;;;5009012;28;20445;-57
2024/03/05 00:41:02;;;;;;;58.93;25.50;;;;;;;;;;4999211;28;20061;-57
2024/03/05 00:43:27;;;;;;;61.77;25.47;;;;;;;;;;5010534;28;20125;-57
2024/03/05 00:45:53;;;;;;;60.70;26.92;;;;;;;;;;5010525;28;20536;-58
2024/03/05 00:48:19;;;;;;;62.90;27.35;;;;;;;;;;5009549;28;20049;-58
2024/03/05 00:50:44;;;;;;;57.85;26.95;;;;;;;;;;5012729;28;20025;-58
2024/03/05 00:53:09;;;;;;;56.63;24.33;;;;;;;;;;5010528;28;20026;-58
2024/03/05 00:55:37;;;;;;;53.38;22.75;;;;;;;;;;5010147;28;20437;-57
2024/03/05 00:58:02;;;;;;;53.70;23.73;;;;;;;;;;5009726;28;20486;-58
2024/03/05 01:00:27;;;;;;;52.00;24.60;;;;;;;;;;5011007;28;20028;-59
2024/03/05 01:02:52;;;;;;;56.40;26.00;;;;;;;;;;5011909;28;20457;-58
2024/03/05 01:05:18;;;;;;;53.87;24.90;;;;;;;;;;5015172;28;20065;-57
2024/03/05 01:07:44;;;;;;;56.88;26.25;;;;;;;;;;5012520;28;20427;-58
2024/03/05 01:10:09;;;;;;;61.95;27.92;;;;;;;;;;5005562;28;20042;-59
2024/03/05 01:12:35;;;;;;;59.92;25.02;;;;;;;;;;5012424;28;20712;-58
2024/03/05 01:15:00;;;;;;;50.97;23.00;;;;;;;;;;5011696;28;20030;-57
2024/03/05 01:17:27;;;;;;;50.63;23.97;;;;;;;;;;5010883;28;20501;-56
2024/03/05 01:19:52;;;;;;;51.03;22.38;;;;;;;;;;5012129;28;20479;-59
2024/03/05 01:22:17;;;;;;;50.80;22.33;;;;;;;;;;5010001;28;20033;-57
2024/03/05 01:24:43;;;;;;;53.75;24.27;;;;;;;;;;5009248;28;20447;-58
2024/03/05 01:27:08;;;;;;;51.23;23.93;;;;;;;;;;5010871;28;20021;-59
2024/03/05 01:29:33;;;;;;;53.95;24.85;;;;;;;;;;5011355;28;20037;-56
2024/03/05 01:32:01;;;;;;;58.23;25.47;;;;;;;;;;5011388;28;20033;-59
2024/03/05 01:34:26;;;;;;;60.40;25.63;;;;;;;;;;5010636;28;20037;-58
2024/03/05 01:36:58;;;;;;;55.73;23.70;;;;;;;;;;5010949;28;20026;-57
2024/03/05 01:39:24;;;;;;;48.83;22.88;;;;;;;;;;5015474;28;20025;-57
2024/03/05 01:41:49;;;;;;;54.25;24.48;;;;;;;;;;5014650;28;20029;-56
2024/03/05 01:44:15;;;;;;;54.95;23.83;;;;;;;;;;5014843;28;20030;-57
2024/03/05 01:46:40;;;;;;;53.90;24.50;;;;;;;;;;5016018;28;20026;-58
2024/03/05 01:49:06;;;;;;;53.55;23.92;;;;;;;;;;5017032;28;20116;-59
2024/03/05 01:51:32;;;;;;;62.38;25.95;;;;;;;;;;5024372;28;20022;-58
2024/03/05 01:53:58;;;;;;;62.72;25.83;;;;;;;;;;5022572;28;20030;-59
2024/03/05 01:56:23;;;;;;;59.63;24.08;;;;;;;;;;5020386;28;20053;-59
2024/03/05 01:58:49;;;;;;;58.37;25.53;;;;;;;;;;5022795;28;20486;-58
2024/03/05 02:01:14;;;;;;;56.38;24.25;;;;;;;;;;5021883;28;20437;-58
2024/03/05 02:03:40;;;;;;;60.07;25.50;;;;;;;;;;5022952;28;20029;-58
2024/03/05 02:06:07;;;;;;;62.25;24.58;;;;;;;;;;5018971;28;20065;-59
2024/03/05 02:08:32;;;;;;;58.90;24.98;;;;;;;;;;5019286;28;20024;-58
2024/03/05 02:10:57;;;;;;;61.80;25.27;;;;;;;;;;5018029;28;20045;-59
2024/03/05 02:13:22;;;;;;;55.17;23.60;;;;;;;;;;5013726;28;20108;-57
2024/03/05 02:15:49;;;;;;;63.47;26.65;;;;;;;;;;5013399;28;20022;-59
2024/03/05 02:18:14;;;;;;;64.15;26.30;;;;;;;;;;5013845;28;20091;-59
2024/03/05 02:20:39;;;;;;;61.20;25.40;;;;;;;;;;5010369;28;20026;-59
2024/03/05 02:23:04;;;;;;;60.97;24.83;;;;;;;;;;5013051;28;20505;-59
2024/03/05 02:25:31;;;;;;;60.20;23.85;;;;;;;;;;5014432;28;20048;-58
2024/03/05 02:27:57;;;;;;;63.05;25.42;;;;;;;;;;5013919;28;20486;-59
2024/03/05 02:30:22;;;;;;;61.15;22.77;;;;;;;;;;5012590;28;20033;-59
2024/03/05 02:32:47;;;;;;;57.23;23.03;;;;;;;;;;5013224;28;20026;-58
2024/03/05 02:35:13;;;;;;;55.10;23.35;;;;;;;;;;5013141;28;20025;-58
2024/03/05 02:37:38;;;;;;;61.13;23.13;;;;;;;;;;5007385;28;20105;-58
2024/03/05 02:40:05;;;;;;;52.38;21.60;;;;;;;;;;5012821;28;20382;-58
2024/03/05 02:42:31;;;;;;;53.45;22.02;;;;;;;;;;5012551;28;20663;-59
2024/03/05 02:44:56;;;;;;;53.17;22.03;;;;;;;;;;5012373;28;20036;-58
2024/03/05 02:47:21;;;;;;;57.87;22.07;;;;;;;;;;5007800;28;20108;-57
2024/03/05 02:49:46;;;;;;;53.93;22.13;;;;;;;;;;5004886;28;21030;-57
2024/03/05 02:52:11;;;;;;;54.85;22.00;;;;;;;;;;5012505;28;20466;-60
2024/03/05 02:54:37;;;;;;;57.35;23.10;;;;;;;;;;5012187;28;20033;-57
2024/03/05 02:57:03;;;;;;;56.97;23.25;;;;;;;;;;5012871;28;20056;-57
2024/03/05 02:59:28;;;;;;;59.63;23.93;;;;;;;;;;5011470;28;20101;-58
2024/03/05 03:01:53;;;;;;;64.00;23.60;;;;;;;;;;5003171;28;20553;-59
2024/03/05 03:04:18;;;;;;;56.60;23.30;;;;;;;;;;5012091;28;20618;-58
2024/03/05 03:06:44;;;;;;;66.95;23.45;;;;;;;;;;5012812;28;20052;-59
2024/03/05 03:09:09;;;;;;;59.10;23.67;;;;;;;;;;5013808;28;20026;-57
2024/03/05 03:11:34;;;;;;;56.42;21.80;;;;;;;;;;5015352;28;20080;-58
2024/03/05 03:14:00;;;;;;;58.13;23.83;;;;;;;;;;5014631;28;20030;-58
2024/03/05 03:16:25;;;;;;;62.50;23.27;;;;;;;;;;5021065;28;20581;-58
2024/03/05 03:18:50;;;;;;;60.63;23.67;;;;;;;;;;5011881;28;20080;-59
2024/03/05 03:21:17;;;;;;;59.35;22.88;;;;;;;;;;5012064;28;20026;-59
2024/03/05 03:23:42;;;;;;;56.13;22.73;;;;;;;;;;5012280;28;20037;-58
2024/03/05 03:26:09;;;;;;;57.97;23.00;;;;;;;;;;5011797;28;20026;-57
2024/03/05 03:28:34;;;;;;;60.55;23.63;;;;;;;;;;5011957;28;20060;-56
2024/03/05 03:31:00;;;;;;;63.15;25.10;;;;;;;;;;5011987;28;20037;-58
2024/03/05 03:33:26;;;;;;;57.88;22.85;;;;;;;;;;5012351;28;20034;-59
2024/03/05 03:35:52;;;;;;;50.47;21.00;;;;;;;;;;5013632;28;20022;-59
2024/03/05 03:38:17;;;;;;;59.55;23.40;;;;;;;;;;5014741;28;20018;-59
2024/03/05 03:40:42;;;;;;;58.97;22.63;;;;;;;;;;5013339;28;20026;-57
2024/03/05 03:43:10;;;;;;;56.47;22.27;;;;;;;;;;5000707;28;20573;-59
2024/03/05 03:45:35;;;;;;;54.95;22.48;;;;;;;;;;5011643;28;20112;-59
2024/03/05 03:48:00;;;;;;;59.08;22.70;;;;;;;;;;5012070;28;20046;-58
2024/03/05 03:50:25;;;;;;;58.28;23.10;;;;;;;;;;5005553;28;20026;-60
2024/03/05 03:52:50;;;;;;;59.53;23.17;;;;;;;;;;5017948;28;20383;-57
2024/03/05 03:55:15;;;;;;;57.40;22.55;;;;;;;;;;5010670;28;20371;-59
2024/03/05 03:57:41;;;;;;;51.33;21.40;;;;;;;;;;5010187;28;20026;-57
2024/03/05 04:00:09;;;;;;;57.15;23.45;;;;;;;;;;5010924;28;20041;-58
2024/03/05 04:02:36;;;;;;;58.90;23.23;;;;;;;;;;5010444;28;20034;-59
2024/03/05 04:05:04;;;;;;;61.13;23.75;;;;;;;;;;5011125;28;20171;-58
2024/03/05 04:07:30;;;;;;;51.63;21.17;;;;;;;;;;5010454;28;20438;-57
2024/03/05 04:09:55;;;;;;;58.75;22.35;;;;;;;;;;4995486;28;20490;-58
2024/03/05 04:12:21;;;;;;;67.27;24.97;;;;;;;;;;5010860;28;20101;-57
2024/03/05 04:14:46;;;;;;;60.70;22.80;;;;;;;;;;5010719;28;20058;-59
2024/03/05 04:17:13;;;;;;;57.23;23.60;;;;;;;;;;5011434;28;20022;-58
2024/03/05 04:19:38;;;;;;;58.88;23.45;;;;;;;;;;5011196;28;20026;-58
2024/03/05 04:22:03;;;;;;;56.85;22.42;;;;;;;;;;5007125;28;20109;-58
2024/03/05 04:24:30;;;;;;;58.60;21.23;;;;;;;;;;5014229;28;20032;-61
2024/03/05 04:27:02;;;;;;;54.60;21.40;;;;;;;;;;5011508;28;20014;-59
2024/03/05 04:29:30;;;;;;;55.55;20.48;;;;;;;;;;5011616;28;20029;-58
2024/03/05 04:32:05;;;;;;;52.28;22.30;;;;;;;;;;5011828;28;20026;-57
2024/03/05 04:34:30;;;;;;;57.95;21.73;;;;;;;;;;5018750;28;20485;-59
2024/03/05 04:36:55;;;;;;;55.35;21.55;;;;;;;;;;5037785;28;20033;-57
2024/03/05 04:39:22;;;;;;;48.13;21.33;;;;;;;;;;5016911;28;20033;-58
2024/03/05 04:41:48;;;;;;;50.25;20.35;;;;;;;;;;5013477;28;20418;-59
2024/03/05 04:44:13;;;;;;;56.90;21.23;;;;;;;;;;5012211;28;20030;-59
2024/03/05 04:46:38;;;;;;;52.83;21.93;;;;;;;;;;5012925;28;20088;-60
2024/03/05 04:49:06;;;;;;;56.00;22.08;;;;;;;;;;5011151;28;20425;-58
2024/03/05 04:51:31;;;;;;;51.78;21.15;;;;;;;;;;5011294;28;20018;-59
2024/03/05 04:53:57;;;;;;;54.15;20.90;;;;;;;;;;5010566;28;20032;-60
2024/03/05 04:56:22;;;;;;;51.53;21.65;;;;;;;;;;5010109;28;20037;-59
2024/03/05 04:58:49;;;;;;;48.63;21.00;;;;;;;;;;5010612;28;20052;-59
2024/03/05 05:01:14;;;;;;;50.05;20.55;;;;;;;;;;5008972;28;20109;-57
2024/03/05 05:03:42;;;;;;;51.60;20.38;;;;;;;;;;4995185;28;20105;-59
2024/03/05 05:06:07;;;;;;;46.95;19.17;;;;;;;;;;5010188;28;20025;-58
2024/03/05 05:08:34;;;;;;;43.65;18.70;;;;;;;;;;5010366;28;20753;-58
2024/03/05 05:11:00;;;;;;;46.20;19.17;;;;;;;;;;5007675;28;20026;-57
2024/03/05 05:13:25;;;;;;;47.05;21.17;;;;;;;;;;5010887;28;20045;-59
2024/03/05 05:15:51;;;;;;;45.03;19.10;;;;;;;;;;5014439;28;20022;-59
2024/03/05 05:18:16;;;;;;;46.92;19.33;;;;;;;;;;5015181;28;20022;-58
2024/03/05 05:20:41;;;;;;;45.47;19.92;;;;;;;;;;5008590;28;20107;-58
2024/03/05 05:23:06;;;;;;;51.17;21.25;;;;;;;;;;5013165;28;20053;-59
2024/03/05 05:25:32;;;;;;;49.03;20.08;;;;;;;;;;5007774;28;20032;-57
2024/03/05 05:27:57;;;;;;;49.13;20.60;;;;;;;;;;5000569;28;20030;-58
2024/03/05 05:30:23;;;;;;;45.78;20.48;;;;;;;;;;5004966;28;20049;-57
2024/03/05 05:32:48;;;;;;;50.45;20.10;;;;;;;;;;5010700;28;20072;-62
2024/03/05 05:35:14;;;;;;;51.90;19.90;;;;;;;;;;5009729;28;20033;-58
2024/03/05 05:37:39;;;;;;;41.70;19.40;;;;;;;;;;5011126;28;20557;-58
2024/03/05 05:40:05;;;;;;;48.63;20.87;;;;;;;;;;5010724;28;20041;-59
2024/03/05 05:42:30;;;;;;;47.10;19.17;;;;;;;;;;5011081;28;20045;-60
2024/03/05 05:44:56;;;;;;;46.10;19.17;;;;;;;;;;5010226;28;20026;-58
2024/03/05 05:47:22;;;;;;;46.75;19.38;;;;;;;;;;5013798;28;20025;-57
2024/03/05 05:49:47;;;;;;;48.22;21.08;;;;;;;;;;5014403;28;20433;-59
2024/03/05 05:52:12;;;;;;;48.00;19.63;;;;;;;;;;5010784;28;20045;-58
2024/03/05 05:54:44;;;;;;;49.70;19.93;;;;;;;;;;5009895;28;20038;-58
2024/03/05 05:57:10;;;;;;;40.80;17.80;;;;;;;;;;5014110;28;20022;-58
2024/03/05 05:59:35;;;;;;;43.50;19.63;;;;;;;;;;5009830;28;20029;-58
2024/03/05 06:02:00;;;;;;;42.03;18.07;;;;;;;;;;5010885;28;20041;-59
2024/03/05 06:04:25;;;;;;;42.50;19.48;;;;;;;;;;5010088;28;20443;-59
2024/03/05 06:06:51;;;;;;;51.85;20.92;;;;;;;;;;4997859;28;20053;-59
2024/03/05 06:09:27;;;;;;;46.67;19.73;;;;;;;;;;5009834;28;20078;-59
2024/03/05 06:11:52;;;;;;;44.13;19.33;;;;;;;;;;4993796;28;20360;-59
2024/03/05 06:14:17;;;;;;;51.65;21.73;;;;;;;;;;5005986;28;20033;-58
2024/03/05 06:16:42;;;;;;;49.85;20.73;;;;;;;;;;5014145;28;20099;-59
2024/03/05 06:19:07;;;;;;;50.75;21.20;;;;;;;;;;5012622;28;20044;-56
2024/03/05 06:21:32;;;;;;;44.13;20.60;;;;;;;;;;5009090;28;20033;-59
2024/03/05 06:23:59;;;;;;;48.47;20.98;;;;;;;;;;5011195;28;20065;-58
2024/03/05 06:26:24;;;;;;;;;;;;;;;;;;5013186;28;20064;-59
2024/03/05 06:28:49;;;;;;;52.25;21.88;;;;;;;;;;5013309;28;19945;-59
2024/03/05 06:31:15;;;;;;;45.42;19.45;;;;;;;;;;5013263;28;20022;-59
2024/03/05 06:33:40;;;;;;;53.65;21.50;;;;;;;;;;5018964;28;20406;-58
2024/03/05 06:36:06;;;;;;;48.92;21.55;;;;;;;;;;5007013;28;20083;-58
2024/03/05 06:38:32;;;;;;;48.60;20.85;;;;;;;;;;5011128;28;20021;-60
2024/03/05 06:40:57;;;;;;;48.08;20.63;;;;;;;;;;5012480;28;20029;-59
2024/03/05 06:43:31;;;;;;;50.60;20.90;;;;;;;;;;5012133;28;20029;-59
2024/03/05 06:45:57;;;;;;;47.92;20.08;;;;;;;;;;5011934;28;20033;-59
2024/03/05 06:48:26;;;;;;;49.03;21.63;;;;;;;;;;5012335;28;20022;-57
2024/03/05 06:50:57;;;;;;;50.08;20.63;;;;;;;;;;5011411;28;20014;-58
2024/03/05 06:58:50;;;;;;;;;;;;;;;;;;5010540;28;20024;-57
2024/03/05 07:01:19;;;;;;;44.43;19.53;;;;;;;;;;5011170;28;20358;-57
2024/03/05 07:03:44;;;;;;;46.00;19.67;;;;;;;;;;5009755;28;20044;-57
2024/03/05 07:06:09;;;;;;;43.08;17.83;;;;;;;;;;5012986;28;20018;-60
2024/03/05 07:08:38;;;;;;;46.03;20.07;;;;;;;;;;5013019;28;20080;-57
2024/03/05 07:11:05;;;;;;;46.63;21.92;;;;;;;;;;5010196;28;20022;-58
2024/03/05 07:13:31;;;;;;;45.72;19.38;;;;;;;;;;5011477;28;20113;-57
2024/03/05 07:15:56;;;;;;;43.67;18.90;;;;;;;;;;5010341;28;21341;-57
2024/03/05 07:18:22;;;;;;;44.33;19.75;;;;;;;;;;5015172;28;20121;-58
2024/03/05 07:20:47;;;;;;;40.13;18.33;;;;;;;;;;5020985;28;20030;-56
2024/03/05 07:23:12;;;;;;;36.97;16.50;;;;;;;;;;5015487;28;20853;-58
2024/03/05 07:25:38;;;;;;;39.42;17.65;;;;;;;;;;5009809;28;20371;-59
2024/03/05 07:28:03;;;;;;;43.10;18.05;;;;;;;;;;5009438;28;20034;-57
2024/03/05 07:30:29;;;;;;;40.75;17.98;;;;;;;;;;5010729;28;20032;-58
2024/03/05 07:32:54;;;;;;;39.57;18.63;;;;;;;;;;5016875;28;20025;-57
2024/03/05 07:35:19;;;;;;;41.10;18.00;;;;;;;;;;5020404;28;20460;-59
2024/03/05 07:37:45;;;;;;;42.60;18.20;;;;;;;;;;5020847;28;20041;-59
2024/03/05 07:40:17;;;;;;;38.97;17.88;;;;;;;;;;5021721;28;20436;-59
2024/03/05 07:42:51;;;;;;;37.80;16.55;;;;;;;;;;5021796;28;20022;-57
2024/03/05 07:45:17;;;;;;;40.78;17.42;;;;;;;;;;5020912;28;20038;-60
2024/03/05 07:47:42;;;;;;;39.50;17.70;;;;;;;;;;5021974;28;20026;-57
2024/03/05 07:50:12;;;;;;;40.83;17.70;;;;;;;;;;5020942;28;20025;-58
2024/03/05 07:52:37;;;;;;;37.42;16.90;;;;;;;;;;5020040;28;20053;-58
2024/03/05 07:55:03;;;;;;;35.57;16.77;;;;;;;;;;5021514;28;20088;-59
2024/03/05 07:57:28;;;;;;;;;;;;;;;;;;5018647;28;20022;-60
2024/03/05 07:59:54;;;;;;;38.13;17.40;;;;;;;;;;5014190;28;19971;-59
2024/03/05 08:02:20;;;;;;;34.00;16.00;;;;;;;;;;5017724;28;20026;-58
2024/03/05 08:04:46;;;;;;;40.63;17.30;;;;;;;;;;5024231;28;20084;-57
2024/03/05 08:07:11;;;;;;;35.80;16.80;;;;;;;;;;5017308;28;20085;-59
2024/03/05 08:09:36;;;;;;;35.03;16.77;;;;;;;;;;5024572;28;20030;-59
2024/03/05 08:12:02;;;;;;;37.97;17.30;;;;;;;;;;5015963;28;20046;-59
2024/03/05 08:14:27;;;;;;;33.58;15.73;;;;;;;;;;5011688;28;20038;-58
2024/03/05 08:16:54;;;;;;;31.77;16.17;;;;;;;;;;5010293;28;20036;-57
2024/03/05 08:19:19;;;;;;;40.20;17.17;;;;;;;;;;5011246;28;20393;-59
2024/03/05 08:21:44;;;;;;;31.50;16.75;;;;;;;;;;5011314;28;20026;-59
2024/03/05 08:24:11;;;;;;;34.07;17.83;;;;;;;;;;5011388;28;20052;-58
2024/03/05 08:26:36;;;;;;;34.08;17.33;;;;;;;;;;5011560;28;20096;-58
2024/03/05 08:29:01;;;;;;;31.80;16.25;;;;;;;;;;5017400;28;20038;-59
2024/03/05 08:31:26;;;;;;;34.23;16.23;;;;;;;;;;5011927;28;20489;-57
2024/03/05 08:33:51;;;;;;;37.45;17.45;;;;;;;;;;5008580;28;20030;-59
2024/03/05 08:36:17;;;;;;;35.75;17.30;;;;;;;;;;5011716;28;20087;-59
2024/03/05 08:38:44;;;;;;;40.83;17.10;;;;;;;;;;5010953;28;20033;-58
2024/03/05 08:41:10;;;;;;;33.30;16.35;;;;;;;;;;5011193;28;20029;-57
2024/03/05 08:43:35;;;;;;;36.22;17.05;;;;;;;;;;5016796;28;20064;-59
2024/03/05 08:46:02;;;;;;;31.23;15.80;;;;;;;;;;5009035;28;20026;-59
2024/03/05 08:48:28;;;;;;;34.28;16.02;;;;;;;;;;5012124;28;20037;-58
2024/03/05 08:50:53;;;;;;;31.42;16.08;;;;;;;;;;5017555;28;20021;-58
2024/03/05 08:53:18;;;;;;;33.63;16.83;;;;;;;;;;5017671;28;20053;-59
2024/03/05 08:55:44;;;;;;;31.47;16.30;;;;;;;;;;5015147;28;20514;-59
2024/03/05 08:58:09;;;;;;;31.30;14.93;;;;;;;;;;5017098;28;20440;-58
2024/03/05 09:00:34;;;;;;;36.47;16.47;;;;;;;;;;5019980;28;20093;-59
2024/03/05 09:03:00;;;;;;;30.75;15.38;;;;;;;;;;5020240;28;20504;-59
2024/03/05 09:05:25;;;;;;;30.00;15.23;;;;;;;;;;5018535;28;20052;-57
2024/03/05 09:07:50;;;;;;;31.05;15.93;;;;;;;;;;5009442;28;20026;-58
2024/03/05 09:10:17;;;;;;;34.30;16.10;;;;;;;;;;5009038;28;20026;-58
2024/03/05 09:12:42;;;;;;;29.92;16.00;;;;;;;;;;5020268;28;20034;-59
2024/03/05 09:15:08;;;;;;;31.13;15.57;;;;;;;;;;5026088;28;20029;-58
2024/03/05 09:17:33;;;;;;;28.25;15.13;;;;;;;;;;5028292;28;20105;-59
2024/03/05 09:19:59;;;;;;;30.97;15.40;;;;;;;;;;5025271;28;20064;-59
2024/03/05 09:22:24;;;;;;;30.13;15.13;;;;;;;;;;5024948;28;20108;-59
2024/03/05 09:24:50;;;;;;;31.23;15.50;;;;;;;;;;5025178;28;20026;-60
2024/03/05 09:27:15;;;;;;;28.88;14.70;;;;;;;;;;5027705;28;20018;-59
2024/03/05 09:29:41;;;;;;;29.90;16.07;;;;;;;;;;5027433;28;20050;-58
2024/03/05 09:32:08;;;;;;;29.33;14.43;;;;;;;;;;5018459;28;20480;-59
2024/03/05 09:34:33;;;;;;;26.95;13.93;;;;;;;;;;5018690;28;20021;-58
2024/03/05 09:36:58;;;;;;;27.80;14.90;;;;;;;;;;5016966;28;20432;-59
2024/03/05 09:39:24;;;;;;;29.08;15.25;;;;;;;;;;5017335;28;20042;-59
2024/03/05 09:41:50;;;;;;;31.00;15.17;;;;;;;;;;5017924;28;20029;-58
2024/03/05 09:44:15;;;;;;;28.90;14.80;;;;;;;;;;5015522;28;20041;-59
2024/03/05 09:46:45;;;;;;;29.48;13.75;;;;;;;;;;5018587;28;20108;-58
2024/03/05 09:49:12;;;;;;;28.95;14.90;;;;;;;;;;5016686;28;20021;-59
2024/03/05 09:51:39;;;;;;;27.77;14.63;;;;;;;;;;5025687;28;20041;-58
2024/03/05 09:54:06;;;;;;;26.83;13.68;;;;;;;;;;4997460;28;20026;-60
2024/03/05 09:56:31;;;;;;;27.30;14.65;;;;;;;;;;5019325;28;20429;-63
2024/03/05 09:58:58;;;;;;;29.70;15.25;;;;;;;;;;5017221;28;20037;-56
2024/03/05 10:01:23;;;;;;;26.95;14.68;;;;;;;;;;5014089;28;20018;-58
2024/03/05 10:03:48;;;;;;;27.23;13.80;;;;;;;;;;5014324;28;20079;-57
2024/03/05 10:06:13;;;;;;;25.73;13.48;;;;;;;;;;5011638;28;20025;-58
2024/03/05 10:08:39;;;;;;;29.85;15.13;;;;;;;;;;5013929;28;20025;-58
2024/03/05 10:11:04;;;;;;;25.90;14.47;;;;;;;;;;5014059;28;20025;-58
2024/03/05 10:13:35;;;;;;;30.75;15.77;;;;;;;;;;5014008;28;20022;-58
2024/03/05 10:16:19;;;;;;;27.33;14.02;;;;;;;;;;5013891;28;20493;-58
2024/03/05 10:18:47;;;;;;;28.67;15.40;;;;;;;;;;5013966;28;20014;-58
2024/03/05 10:21:24;;;;;;;26.77;13.73;;;;;;;;;;5009138;28;20022;-58
2024/03/05 10:23:56;;;;;;;26.50;14.00;;;;;;;;;;5012380;28;20037;-59
2024/03/05 10:26:23;;;;;;;;;;;;;;;;;;5014898;28;20029;-57
2024/03/05 10:28:50;;;;;;;24.80;13.25;;;;;;;;;;5013652;28;20385;-58
2024/03/05 10:31:19;;;;;;;24.80;14.35;;;;;;;;;;5014145;28;20559;-58
2024/03/05 10:33:46;;;;;;;33.10;15.02;;;;;;;;;;5013602;28;20057;-58
2024/03/05 10:36:12;;;;;;;;;;;;;;;;;;5013238;28;20026;-58
2024/03/05 10:38:37;;;;;;;26.60;14.18;;;;;;;;;;5012390;28;19973;-58
2024/03/05 10:41:03;;;;;;;30.77;15.10;;;;;;;;;;5005340;28;20022;-59
2024/03/05 10:43:29;;;;;;;27.25;13.85;;;;;;;;;;5013242;28;20421;-59
2024/03/05 10:45:54;;;;;;;22.50;12.80;;;;;;;;;;5013341;28;20125;-59
2024/03/05 10:48:20;;;;;;;28.73;14.50;;;;;;;;;;5011454;28;20022;-58
2024/03/05 10:50:47;;;;;;;30.75;14.95;;;;;;;;;;5012944;28;20069;-58
2024/03/05 10:53:12;;;;;;;26.00;14.45;;;;;;;;;;5013231;28;20426;-58
2024/03/05 10:55:38;;;;;;;30.50;13.43;;;;;;;;;;5018249;28;20037;-59
2024/03/05 11:00:41;;;;;;;25.85;14.30;;;;;;;;;;5014642;28;20485;-59
2024/03/05 11:03:07;;;;;;;24.75;13.55;;;;;;;;;;5033349;28;20478;-58
2024/03/05 11:05:37;;;;;;;27.10;13.00;;;;;;;;;;5022574;28;20025;-58
2024/03/05 11:08:03;;;;;;;26.92;14.65;;;;;;;;;;5014987;28;20045;-57
2024/03/05 11:10:29;;;;;;;33.15;14.82;;;;;;;;;;5016811;28;20069;-59
2024/03/05 11:12:54;;;;;;;25.58;14.00;;;;;;;;;;5011460;28;20017;-58
2024/03/05 11:15:21;;;;;;;26.23;13.67;;;;;;;;;;5011145;28;20450;-60
2024/03/05 11:17:46;;;;;;;29.02;14.38;;;;;;;;;;5012907;28;20540;-58
2024/03/05 11:20:31;;;;;;;28.42;15.18;;;;;;;;;;5012876;28;20023;-61
2024/03/05 11:22:57;;;;;;;29.48;14.68;;;;;;;;;;5012134;28;20528;-57
2024/03/05 11:25:31;;;;;;;30.93;15.07;;;;;;;;;;5015438;28;20038;-58
2024/03/05 11:27:58;;;;;;;31.13;16.33;;;;;;;;;;5004921;28;20036;-59
2024/03/05 11:30:24;;;;;;;33.13;15.60;;;;;;;;;;5018681;28;20026;-59
2024/03/05 11:32:50;;;;;;;32.80;15.68;;;;;;;;;;5021429;28;20018;-59
2024/03/05 11:35:18;;;;;;;27.20;15.02;;;;;;;;;;5021792;28;20517;-59
2024/03/05 11:37:53;;;;;;;29.70;15.07;;;;;;;;;;5013790;28;20044;-59
2024/03/05 11:40:22;;;;;;;29.08;15.30;;;;;;;;;;5012770;28;20021;-58
2024/03/05 11:42:48;;;;;;;28.73;15.32;;;;;;;;;;5008129;28;20021;-59
2024/03/05 11:45:31;;;;;;;29.38;14.82;;;;;;;;;;5007792;28;20109;-59
2024/03/05 11:47:58;;;;;;;30.95;15.45;;;;;;;;;;5001898;28;20009;-58
2024/03/05 11:50:24;;;;;;;29.10;14.65;;;;;;;;;;5010405;28;20443;-58
2024/03/05 11:52:50;;;;;;;27.70;15.37;;;;;;;;;;5009057;28;20109;-60
2024/03/05 11:55:23;;;;;;;24.98;13.63;;;;;;;;;;5008398;28;20025;-60
2024/03/05 11:57:55;;;;;;;29.30;15.35;;;;;;;;;;5013492;28;20057;-61
2024/03/05 12:00:21;;;;;;;26.38;14.35;;;;;;;;;;5010787;28;20569;-59
2024/03/05 12:02:50;;;;;;;28.88;14.63;;;;;;;;;;5011979;28;20113;-59
2024/03/05 12:05:15;;;;;;;26.55;15.20;;;;;;;;;;5014956;28;20096;-59
2024/03/05 12:07:40;;;;;;;28.03;15.87;;;;;;;;;;5011839;28;20026;-58
2024/03/05 12:10:06;;;;;;;28.63;14.63;;;;;;;;;;5011453;28;20103;-59
2024/03/05 12:12:31;;;;;;;27.47;15.03;;;;;;;;;;5012186;28;20437;-60
2024/03/05 12:14:57;;;;;;;25.45;13.73;;;;;;;;;;5017037;28;20097;-57
2024/03/05 12:17:23;;;;;;;31.00;15.18;;;;;;;;;;5014532;28;20014;-57
2024/03/05 12:19:59;;;;;;;26.30;14.23;;;;;;;;;;5014797;28;20505;-58
2024/03/05 12:22:25;;;;;;;31.25;15.20;;;;;;;;;;5011087;28;20105;-59
2024/03/05 12:24:50;;;;;;;27.60;14.75;;;;;;;;;;5014736;28;20096;-59
2024/03/05 12:27:15;;;;;;;28.92;14.93;;;;;;;;;;5010426;28;20037;-57
2024/03/05 12:29:41;;;;;;;25.67;14.43;;;;;;;;;;5018110;28;20014;-59
2024/03/05 12:32:07;;;;;;;27.35;14.30;;;;;;;;;;5013259;28;20470;-58
2024/03/05 12:34:33;;;;;;;27.45;13.85;;;;;;;;;;5002336;28;20021;-57
2024/03/05 12:36:58;;;;;;;27.27;14.60;;;;;;;;;;5011630;28;20379;-58
2024/03/05 12:39:23;;;;;;;28.97;14.83;;;;;;;;;;5011175;28;20493;-57
2024/03/05 12:42:02;;;;;;;26.87;14.47;;;;;;;;;;5013187;28;20049;-58
2024/03/05 12:44:28;;;;;;;26.45;13.63;;;;;;;;;;5010423;28;20018;-59
2024/03/05 12:47:09;;;;;;;24.70;13.80;;;;;;;;;;4997568;28;20550;-57
2024/03/05 12:49:40;;;;;;;30.60;15.88;;;;;;;;;;5007391;28;20500;-58
2024/03/05 12:52:06;;;;;;;30.65;14.68;;;;;;;;;;5010835;28;20080;-58
2024/03/05 12:54:32;;;;;;;26.38;14.77;;;;;;;;;;5011301;28;20034;-60
2024/03/05 12:56:57;;;;;;;28.85;14.25;;;;;;;;;;5011888;28;20022;-58
2024/03/05 12:59:23;;;;;;;28.05;13.70;;;;;;;;;;5014151;28;20486;-57
2024/03/05 13:01:48;;;;;;;26.70;15.10;;;;;;;;;;5008474;28;20026;-58
2024/03/05 13:04:13;;;;;;;27.83;14.65;;;;;;;;;;5011335;28;20124;-60
2024/03/05 13:06:39;;;;;;;31.40;15.83;;;;;;;;;;5011730;28;20145;-59
2024/03/05 13:09:05;;;;;;;28.27;14.50;;;;;;;;;;5009679;28;20029;-58
2024/03/05 13:11:30;;;;;;;28.30;14.00;;;;;;;;;;5005451;28;21017;-57
2024/03/05 13:14:00;;;;;;;27.35;14.88;;;;;;;;;;5007843;28;20022;-58
2024/03/05 13:16:26;;;;;;;25.88;14.00;;;;;;;;;;5008763;28;20022;-58
2024/03/05 13:18:51;;;;;;;;;;;;;;;;;;5009857;28;20125;-59
2024/03/05 13:21:17;;;;;;;27.58;13.73;;;;;;;;;;5011415;28;19959;-57
2024/03/05 13:23:44;;;;;;;26.57;13.60;;;;;;;;;;5017354;28;20032;-57
2024/03/05 13:26:10;;;;;;;27.85;14.10;;;;;;;;;;5008799;28;20025;-57
2024/03/05 13:28:36;;;;;;;25.70;13.35;;;;;;;;;;5011239;28;20602;-58
2024/03/05 13:31:03;;;;;;;27.77;14.77;;;;;;;;;;5011892;28;20037;-58
2024/03/05 13:33:28;;;;;;;30.30;14.63;;;;;;;;;;5011614;28;20029;-57
2024/03/05 13:35:55;;;;;;;27.67;14.20;;;;;;;;;;5014477;28;20417;-59
2024/03/05 13:38:22;;;;;;;25.08;13.82;;;;;;;;;;5017950;28;20030;-60
2024/03/05 13:40:48;;;;;;;29.50;13.88;;;;;;;;;;5015317;28;20026;-59
2024/03/05 13:43:14;;;;;;;26.05;13.38;;;;;;;;;;5015959;28;20021;-59
2024/03/05 13:45:39;;;;;;;25.83;14.10;;;;;;;;;;5016235;28;21619;-59
2024/03/05 13:48:08;;;;;;;30.37;14.07;;;;;;;;;;5015107;28;21066;-58
2024/03/05 13:50:33;;;;;;;25.15;13.93;;;;;;;;;;5013448;28;20057;-58
2024/03/05 13:52:58;;;;;;;32.10;15.63;;;;;;;;;;5012903;28;20111;-58
2024/03/05 13:55:25;;;;;;;27.00;14.27;;;;;;;;;;5012453;28;20033;-59
2024/03/05 13:57:51;;;;;;;30.98;15.30;;;;;;;;;;5012426;28;20013;-58
2024/03/05 14:00:20;;;;;;;30.35;15.30;;;;;;;;;;5013188;28;20090;-59
2024/03/05 14:02:45;;;;;;;27.80;14.45;;;;;;;;;;5013083;28;20044;-58
2024/03/05 14:05:11;;;;;;;29.30;15.33;;;;;;;;;;5006069;28;20550;-59
2024/03/05 14:07:36;;;;;;;31.25;16.88;;;;;;;;;;5002382;28;20038;-58
2024/03/05 14:10:01;;;;;;;33.40;15.80;;;;;;;;;;5004202;28;20120;-58
2024/03/05 14:12:28;;;;;;;35.37;16.23;;;;;;;;;;5012283;28;20033;-58
2024/03/05 14:14:54;;;;;;;31.80;16.50;;;;;;;;;;5011426;28;20017;-58
2024/03/05 14:17:19;;;;;;;31.07;15.70;;;;;;;;;;5010549;28;20490;-57
2024/03/05 14:19:45;;;;;;;32.33;16.55;;;;;;;;;;5010643;28;20053;-57
2024/03/05 14:22:11;;;;;;;32.17;16.20;;;;;;;;;;5010757;28;20025;-58